createdAt,value
2023-03-17T00:00:26.798Z,5.00
2023-03-17T00:03:34.238Z,5.87
2023-03-17T00:06:25.707Z,6.00
2023-03-17T00:09:15.635Z,6.00
2023-03-17T00:12:00.824Z,5.20
2023-03-17T00:14:47.060Z,5.80
2023-03-17T00:17:32.552Z,4.93
2023-03-17T00:20:23.620Z,5.70
2023-03-17T00:23:15.394Z,4.93
2023-03-17T00:26:01.323Z,5.20
2023-03-17T00:28:46.958Z,6.05
2023-03-17T00:31:34.260Z,5.28
2023-03-17T00:34:20.031Z,5.87
2023-03-17T00:37:05.748Z,5.85
2023-03-17T00:39:51.631Z,6.43
2023-03-17T00:42:37.219Z,6.15
2023-03-17T00:45:23.601Z,6.03
2023-03-17T00:48:18.676Z,5.80
2023-03-17T00:51:04.345Z,6.10
2023-03-17T00:53:49.557Z,5.85
2023-03-17T00:56:34.930Z,9.35
2023-03-17T00:59:26.912Z,12.35
2023-03-17T01:02:13.479Z,11.40
2023-03-17T01:05:06.252Z,7.18
2023-03-17T01:07:57.923Z,7.82
2023-03-17T01:10:43.568Z,8.25
2023-03-17T01:13:29.581Z,8.73
2023-03-17T01:16:15.942Z,7.70
2023-03-17T01:19:01.583Z,7.22
2023-03-17T01:21:48.076Z,7.00
2023-03-17T01:24:33.327Z,6.28
2023-03-17T01:27:19.471Z,7.07
2023-03-17T01:30:06.779Z,7.28
2023-03-17T01:32:52.324Z,5.78
2023-03-17T01:35:39.080Z,6.40
2023-03-17T01:38:24.640Z,5.60
2023-03-17T01:41:10.524Z,5.87
2023-03-17T01:43:55.484Z,5.45
2023-03-17T01:46:40.785Z,6.28
2023-03-17T01:49:35.483Z,5.80
2023-03-17T01:52:21.992Z,5.65
2023-03-17T01:55:12.830Z,5.40
2023-03-17T01:57:58.724Z,5.65
2023-03-17T02:00:44.415Z,4.85
2023-03-17T02:03:30.167Z,5.05
2023-03-17T02:06:16.118Z,6.00
2023-03-17T02:09:01.780Z,18.35
2023-03-17T02:11:47.308Z,17.83
2023-03-17T02:14:32.709Z,17.85
2023-03-17T02:17:19.428Z,21.73
2023-03-17T02:20:17.246Z,27.95
2023-03-17T02:23:04.187Z,20.48
2023-03-17T02:25:51.307Z,18.98
2023-03-17T02:28:36.860Z,12.82
2023-03-17T02:31:24.934Z,17.65
2023-03-17T02:34:10.202Z,16.30
2023-03-17T02:36:55.770Z,14.32
2023-03-17T02:39:41.035Z,15.85
2023-03-17T02:42:26.445Z,16.27
2023-03-17T02:45:12.800Z,17.23
2023-03-17T02:47:58.638Z,18.30
2023-03-17T02:50:44.092Z,15.45
2023-03-17T02:53:29.434Z,10.77
2023-03-17T02:56:15.119Z,13.57
2023-03-17T02:59:00.216Z,10.52
2023-03-17T03:01:45.603Z,8.77
2023-03-17T03:04:31.545Z,7.78
2023-03-17T03:07:17.213Z,7.65
2023-03-17T03:10:02.517Z,7.37
2023-03-17T03:12:47.892Z,8.45
2023-03-17T03:15:33.252Z,7.55
2023-03-17T03:18:19.453Z,7.72
2023-03-17T03:21:05.150Z,7.95
2023-03-17T03:23:51.197Z,9.52
2023-03-17T03:26:37.166Z,5.47
2023-03-17T03:29:22.565Z,6.47
2023-03-17T03:32:08.222Z,6.90
2023-03-17T03:34:53.997Z,5.70
2023-03-17T03:37:39.412Z,5.70
2023-03-17T03:40:25.040Z,5.37
2023-03-17T03:43:21.849Z,5.28
2023-03-17T03:46:08.838Z,4.25
2023-03-17T03:48:54.976Z,4.93
2023-03-17T03:51:40.197Z,4.60
2023-03-17T03:54:25.549Z,4.20
2023-03-17T03:57:10.955Z,5.43
2023-03-17T03:59:56.308Z,5.55
2023-03-17T04:02:43.362Z,4.35
2023-03-17T04:05:28.850Z,4.93
2023-03-17T04:08:14.337Z,6.28
2023-03-17T04:10:59.718Z,6.15
2023-03-17T04:13:45.088Z,6.00
2023-03-17T04:16:30.307Z,5.32
2023-03-17T04:19:16.371Z,6.37
2023-03-17T04:22:01.763Z,5.45
2023-03-17T04:24:46.956Z,4.97
2023-03-17T04:27:32.325Z,5.10
2023-03-17T04:30:17.872Z,5.30
2023-03-17T04:33:03.197Z,5.90
2023-03-17T04:35:48.667Z,5.40
2023-03-17T04:38:34.319Z,5.40
2023-03-17T04:41:21.263Z,5.32
2023-03-17T04:44:07.177Z,4.57
2023-03-17T04:46:52.742Z,5.47
2023-03-17T04:49:38.363Z,4.37
2023-03-17T04:52:23.502Z,5.25
2023-03-17T04:55:09.505Z,4.60
2023-03-17T04:57:54.678Z,5.32
2023-03-17T05:00:40.230Z,5.35
2023-03-17T05:03:27.844Z,5.03
2023-03-17T05:06:13.617Z,6.03
2023-03-17T05:08:58.977Z,9.13
2023-03-17T05:11:44.364Z,10.57
2023-03-17T05:14:29.715Z,14.18
2023-03-17T05:17:15.340Z,11.95
2023-03-17T05:20:00.589Z,9.02
2023-03-17T05:22:46.611Z,7.60
2023-03-17T05:25:31.935Z,8.30
2023-03-17T05:28:18.283Z,7.65
2023-03-17T05:31:03.706Z,7.37
2023-03-17T05:33:49.653Z,6.95
2023-03-17T05:36:36.821Z,8.02
2023-03-17T05:39:22.226Z,7.00
2023-03-17T05:42:08.578Z,7.28
2023-03-17T05:44:54.401Z,6.28
2023-03-17T05:47:39.607Z,7.03
2023-03-17T05:50:26.078Z,7.40
2023-03-17T05:53:11.721Z,7.20
2023-03-17T05:55:56.984Z,10.13
2023-03-17T05:58:42.586Z,8.15
2023-03-17T06:01:28.170Z,11.40
2023-03-17T06:04:13.462Z,10.25
2023-03-17T06:06:58.952Z,11.32
2023-03-17T06:09:44.201Z,9.40
2023-03-17T06:12:29.769Z,9.18
2023-03-17T06:15:17.051Z,11.63
2023-03-17T06:18:05.225Z,9.55
2023-03-17T06:20:51.190Z,11.95
2023-03-17T06:23:37.337Z,7.80
2023-03-17T06:26:23.001Z,8.65
2023-03-17T06:29:14.205Z,5.62
2023-03-17T06:32:09.268Z,4.30
2023-03-17T06:35:03.025Z,4.00
2023-03-17T06:37:48.385Z,2.95
2023-03-17T06:40:34.248Z,2.72
2023-03-17T06:43:19.737Z,3.20
2023-03-17T06:46:05.963Z,2.95
2023-03-17T06:48:51.386Z,3.03
2023-03-17T06:51:37.505Z,2.60
2023-03-17T06:54:25.502Z,4.43
2023-03-17T06:57:10.935Z,3.42
2023-03-17T06:59:56.084Z,2.90
2023-03-17T07:02:43.499Z,2.67
2023-03-17T07:05:29.284Z,3.00
2023-03-17T07:08:15.413Z,2.55
2023-03-17T07:11:08.111Z,2.67
2023-03-17T07:13:53.927Z,3.00
2023-03-17T07:16:40.463Z,2.83
2023-03-17T07:19:27.290Z,2.75
2023-03-17T07:22:12.919Z,2.95
2023-03-17T07:24:59.270Z,2.78
2023-03-17T07:27:44.841Z,3.10
2023-03-17T07:30:31.274Z,3.12
2023-03-17T07:33:21.919Z,3.00
2023-03-17T07:36:09.163Z,3.28
2023-03-17T07:38:55.530Z,2.83
2023-03-17T07:41:41.445Z,3.83
2023-03-17T07:44:27.637Z,3.30
2023-03-17T07:47:13.806Z,2.30
2023-03-17T07:49:59.310Z,2.58
2023-03-17T07:52:45.972Z,2.47
2023-03-17T07:55:32.780Z,3.37
2023-03-17T07:58:18.740Z,2.53
2023-03-17T08:01:05.079Z,3.15
2023-03-17T08:03:50.319Z,3.45
2023-03-17T08:06:44.860Z,3.85
2023-03-17T08:09:32.807Z,2.33
2023-03-17T08:12:18.333Z,1.70
2023-03-17T08:15:03.852Z,1.80
2023-03-17T08:17:49.208Z,2.58
2023-03-17T08:20:35.306Z,1.80
2023-03-17T08:23:21.614Z,2.22
2023-03-17T08:26:07.028Z,2.87
2023-03-17T08:28:52.457Z,2.12
2023-03-17T08:31:38.123Z,2.35
2023-03-17T08:34:24.381Z,2.72
2023-03-17T08:37:12.037Z,2.20
2023-03-17T08:39:57.798Z,2.85
2023-03-17T08:42:46.864Z,2.20
2023-03-17T08:45:32.957Z,2.45
2023-03-17T08:48:18.680Z,2.40
2023-03-17T08:51:06.911Z,2.20
2023-03-17T08:53:52.855Z,1.77
2023-03-17T08:56:40.595Z,3.17
2023-03-17T08:59:28.102Z,1.55
2023-03-17T09:02:15.936Z,1.80
2023-03-17T09:05:02.735Z,1.60
2023-03-17T09:07:49.614Z,1.62
2023-03-17T09:10:36.595Z,2.20
2023-03-17T09:13:22.747Z,3.00
2023-03-17T09:16:10.980Z,1.70
2023-03-17T09:18:56.438Z,2.53
2023-03-17T09:21:41.682Z,2.20
2023-03-17T09:24:29.485Z,2.47
2023-03-17T09:27:14.915Z,2.30
2023-03-17T09:30:03.086Z,2.12
2023-03-17T09:32:49.972Z,1.90
2023-03-17T09:35:35.682Z,1.77
2023-03-17T09:38:21.725Z,1.90
2023-03-17T09:41:18.992Z,1.98
2023-03-17T09:44:10.382Z,1.87
2023-03-17T09:47:18.235Z,1.90
2023-03-17T09:50:09.573Z,2.00
2023-03-17T09:52:57.023Z,1.80
2023-03-17T09:55:43.231Z,8.50
2023-03-17T09:58:31.950Z,1.85
2023-03-17T10:01:18.679Z,2.00
2023-03-17T10:04:08.097Z,2.40
2023-03-17T10:07:07.193Z,2.08
2023-03-17T10:10:05.261Z,2.05
2023-03-17T10:13:02.136Z,3.17
2023-03-17T10:15:52.566Z,3.15
2023-03-17T10:18:49.126Z,1.87
2023-03-17T10:21:37.866Z,1.95
2023-03-17T10:24:25.040Z,1.70
2023-03-17T10:27:11.739Z,1.90
2023-03-17T10:29:57.869Z,1.83
2023-03-17T10:32:46.014Z,1.87
2023-03-17T10:35:36.518Z,1.83
2023-03-17T10:38:24.140Z,3.03
2023-03-17T10:41:14.759Z,2.30
2023-03-17T10:44:00.712Z,2.25
2023-03-17T10:46:57.137Z,1.73
2023-03-17T10:49:44.591Z,2.00
2023-03-17T10:52:35.995Z,1.75
2023-03-17T10:55:24.157Z,1.55
2023-03-17T10:58:18.431Z,1.73
2023-03-17T11:01:08.663Z,1.80
2023-03-17T11:03:54.578Z,2.17
2023-03-17T11:06:51.464Z,1.70
2023-03-17T11:09:38.167Z,5.22
2023-03-17T11:13:01.432Z,1.90
2023-03-17T11:15:54.552Z,2.05
2023-03-17T11:18:40.373Z,1.73
2023-03-17T11:21:34.793Z,2.22
2023-03-17T11:24:32.028Z,1.75
2023-03-17T11:27:26.728Z,2.00
2023-03-17T11:30:33.070Z,2.53
2023-03-17T11:33:44.458Z,2.87
2023-03-17T11:36:48.561Z,1.80
2023-03-17T11:40:11.265Z,2.03
2023-03-17T11:43:14.825Z,2.10
2023-03-17T11:46:24.448Z,2.20
2023-03-17T11:49:34.529Z,1.83
2023-03-17T11:52:28.702Z,2.30
2023-03-17T11:55:32.684Z,2.65
2023-03-17T11:59:01.830Z,2.35
2023-03-17T12:02:11.251Z,3.03
2023-03-17T12:05:06.456Z,3.12
2023-03-17T12:07:54.918Z,2.12
2023-03-17T12:10:46.104Z,2.40
2023-03-17T12:13:34.381Z,3.20
2023-03-17T12:16:38.395Z,3.33
2023-03-17T12:19:28.324Z,3.10
2023-03-17T12:22:28.536Z,2.28
2023-03-17T12:25:36.206Z,2.20
2023-03-17T12:28:27.285Z,2.83
2023-03-17T12:31:40.189Z,4.78
2023-03-17T12:34:46.244Z,1.98
2023-03-17T12:37:32.114Z,2.10
2023-03-17T12:40:21.227Z,1.98
2023-03-17T12:43:10.301Z,2.00
2023-03-17T12:46:38.030Z,1.95
2023-03-17T12:49:28.500Z,1.85
2023-03-17T12:52:24.809Z,3.70
2023-03-17T12:55:14.807Z,2.10
2023-03-17T12:58:04.786Z,4.90
2023-03-17T13:00:56.218Z,2.20
2023-03-17T13:04:02.110Z,1.87
2023-03-17T13:07:06.394Z,2.08
